sensor_id;sensor_type;location;lat;lon;timestamp;P1;durP1;ratioP1;P2;durP2;ratioP2
75628;SDS011;64213;46.452;16.994;2023-05-19T00:00:26;19.52;;;6.53;;
75628;SDS011;64213;46.452;16.994;2023-05-19T00:03:29;15.85;;;7.05;;
75628;SDS011;64213;46.452;16.994;2023-05-19T00:06:32;15.18;;;5.90;;
75628;SDS011;64213;46.452;16.994;2023-05-19T00:09:34;14.23;;;6.20;;
75628;SDS011;64213;46.452;16.994;2023-05-19T00:12:37;11.93;;;4.13;;
75628;SDS011;64213;46.452;16.994;2023-05-19T00:15:39;16.12;;;5.55;;
75628;SDS011;64213;46.452;16.994;2023-05-19T00:18:41;14.85;;;5.60;;
75628;SDS011;64213;46.452;16.994;2023-05-19T00:21:44;17.20;;;5.82;;
75628;SDS011;64213;46.452;16.994;2023-05-19T00:24:46;18.43;;;5.90;;
75628;SDS011;64213;46.452;16.994;2023-05-19T00:27:48;15.27;;;5.77;;
75628;SDS011;64213;46.452;16.994;2023-05-19T00:30:49;16.23;;;6.07;;
75628;SDS011;64213;46.452;16.994;2023-05-19T00:33:52;14.85;;;6.18;;
75628;SDS011;64213;46.452;16.994;2023-05-19T00:36:54;14.82;;;5.70;;
75628;SDS011;64213;46.452;16.994;2023-05-19T00:39:56;14.90;;;5.50;;
75628;SDS011;64213;46.452;16.994;2023-05-19T00:42:59;16.83;;;6.07;;
75628;SDS011;64213;46.452;16.994;2023-05-19T00:46:02;11.88;;;5.28;;
75628;SDS011;64213;46.452;16.994;2023-05-19T00:49:04;12.43;;;5.32;;
75628;SDS011;64213;46.452;16.994;2023-05-19T00:52:06;13.95;;;5.05;;
75628;SDS011;64213;46.452;16.994;2023-05-19T00:55:08;13.50;;;6.20;;
75628;SDS011;64213;46.452;16.994;2023-05-19T00:58:11;17.03;;;5.43;;
75628;SDS011;64213;46.452;16.994;2023-05-19T01:01:14;17.87;;;5.82;;
75628;SDS011;64213;46.452;16.994;2023-05-19T01:04:18;14.85;;;5.53;;
75628;SDS011;64213;46.452;16.994;2023-05-19T01:07:22;14.75;;;5.10;;
75628;SDS011;64213;46.452;16.994;2023-05-19T01:10:24;15.43;;;6.30;;
75628;SDS011;64213;46.452;16.994;2023-05-19T01:13:26;11.77;;;4.60;;
75628;SDS011;64213;46.452;16.994;2023-05-19T01:23:17;14.27;;;5.20;;
75628;SDS011;64213;46.452;16.994;2023-05-19T01:32:52;15.90;;;5.78;;
75628;SDS011;64213;46.452;16.994;2023-05-19T01:35:56;12.27;;;4.95;;
75628;SDS011;64213;46.452;16.994;2023-05-19T01:39:00;14.87;;;5.30;;
75628;SDS011;64213;46.452;16.994;2023-05-19T01:42:03;14.33;;;5.50;;
75628;SDS011;64213;46.452;16.994;2023-05-19T01:45:06;18.47;;;5.00;;
75628;SDS011;64213;46.452;16.994;2023-05-19T01:48:12;14.87;;;5.28;;
75628;SDS011;64213;46.452;16.994;2023-05-19T01:51:15;14.68;;;4.78;;
75628;SDS011;64213;46.452;16.994;2023-05-19T01:54:17;17.02;;;4.97;;
75628;SDS011;64213;46.452;16.994;2023-05-19T02:04:32;11.48;;;5.15;;
75628;SDS011;64213;46.452;16.994;2023-05-19T02:07:43;12.65;;;5.05;;
75628;SDS011;64213;46.452;16.994;2023-05-19T02:10:54;12.25;;;4.97;;
75628;SDS011;64213;46.452;16.994;2023-05-19T02:14:17;14.07;;;4.60;;
75628;SDS011;64213;46.452;16.994;2023-05-19T02:17:26;12.40;;;5.07;;
75628;SDS011;64213;46.452;16.994;2023-05-19T02:20:33;12.85;;;5.45;;
75628;SDS011;64213;46.452;16.994;2023-05-19T02:23:35;12.23;;;4.65;;
75628;SDS011;64213;46.452;16.994;2023-05-19T02:26:37;12.18;;;4.82;;
75628;SDS011;64213;46.452;16.994;2023-05-19T02:29:39;11.77;;;5.13;;
75628;SDS011;64213;46.452;16.994;2023-05-19T02:32:41;11.97;;;4.97;;
75628;SDS011;64213;46.452;16.994;2023-05-19T02:35:47;9.90;;;4.10;;
75628;SDS011;64213;46.452;16.994;2023-05-19T02:38:49;14.90;;;4.75;;
75628;SDS011;64213;46.452;16.994;2023-05-19T02:41:51;12.57;;;4.70;;
75628;SDS011;64213;46.452;16.994;2023-05-19T02:44:53;13.83;;;5.10;;
75628;SDS011;64213;46.452;16.994;2023-05-19T02:47:55;13.30;;;5.20;;
75628;SDS011;64213;46.452;16.994;2023-05-19T02:50:58;13.30;;;4.93;;
75628;SDS011;64213;46.452;16.994;2023-05-19T02:53:59;12.27;;;4.95;;
75628;SDS011;64213;46.452;16.994;2023-05-19T02:57:01;13.30;;;5.43;;
75628;SDS011;64213;46.452;16.994;2023-05-19T03:00:04;11.67;;;4.40;;
75628;SDS011;64213;46.452;16.994;2023-05-19T03:03:08;15.33;;;4.70;;
75628;SDS011;64213;46.452;16.994;2023-05-19T03:06:11;12.35;;;4.82;;
75628;SDS011;64213;46.452;16.994;2023-05-19T03:09:13;13.82;;;5.35;;
75628;SDS011;64213;46.452;16.994;2023-05-19T03:12:15;12.20;;;4.75;;
75628;SDS011;64213;46.452;16.994;2023-05-19T03:15:17;14.87;;;5.90;;
75628;SDS011;64213;46.452;16.994;2023-05-19T03:18:19;17.93;;;5.90;;
75628;SDS011;64213;46.452;16.994;2023-05-19T03:21:21;16.67;;;5.87;;
75628;SDS011;64213;46.452;16.994;2023-05-19T03:24:24;16.00;;;5.78;;
75628;SDS011;64213;46.452;16.994;2023-05-19T03:27:26;13.57;;;5.28;;
75628;SDS011;64213;46.452;16.994;2023-05-19T03:30:28;13.77;;;5.87;;
75628;SDS011;64213;46.452;16.994;2023-05-19T03:33:30;16.63;;;6.17;;
75628;SDS011;64213;46.452;16.994;2023-05-19T03:36:32;18.58;;;5.53;;
75628;SDS011;64213;46.452;16.994;2023-05-19T03:39:40;14.60;;;5.62;;
75628;SDS011;64213;46.452;16.994;2023-05-19T03:42:42;12.37;;;5.50;;
75628;SDS011;64213;46.452;16.994;2023-05-19T03:45:44;15.55;;;5.20;;
75628;SDS011;64213;46.452;16.994;2023-05-19T03:48:46;14.38;;;5.97;;
75628;SDS011;64213;46.452;16.994;2023-05-19T03:51:48;14.95;;;5.62;;
75628;SDS011;64213;46.452;16.994;2023-05-19T03:54:50;15.52;;;5.72;;
75628;SDS011;64213;46.452;16.994;2023-05-19T03:57:53;11.97;;;4.63;;
75628;SDS011;64213;46.452;16.994;2023-05-19T04:00:55;12.68;;;5.22;;
75628;SDS011;64213;46.452;16.994;2023-05-19T04:03:57;11.68;;;4.43;;
75628;SDS011;64213;46.452;16.994;2023-05-19T04:06:59;19.27;;;6.10;;
75628;SDS011;64213;46.452;16.994;2023-05-19T04:10:04;14.68;;;6.00;;
75628;SDS011;64213;46.452;16.994;2023-05-19T04:13:07;13.70;;;5.37;;
75628;SDS011;64213;46.452;16.994;2023-05-19T04:16:09;18.23;;;6.05;;
75628;SDS011;64213;46.452;16.994;2023-05-19T04:19:11;11.82;;;4.72;;
75628;SDS011;64213;46.452;16.994;2023-05-19T04:22:13;14.90;;;6.05;;
75628;SDS011;64213;46.452;16.994;2023-05-19T04:25:15;17.75;;;6.65;;
75628;SDS011;64213;46.452;16.994;2023-05-19T04:28:17;12.80;;;5.70;;
75628;SDS011;64213;46.452;16.994;2023-05-19T04:31:19;13.85;;;6.18;;
75628;SDS011;64213;46.452;16.994;2023-05-19T04:34:22;14.57;;;6.28;;
75628;SDS011;64213;46.452;16.994;2023-05-19T04:37:24;15.13;;;6.15;;
75628;SDS011;64213;46.452;16.994;2023-05-19T04:40:26;14.70;;;5.90;;
75628;SDS011;64213;46.452;16.994;2023-05-19T04:43:32;22.43;;;7.70;;
75628;SDS011;64213;46.452;16.994;2023-05-19T04:46:34;18.87;;;7.65;;
75628;SDS011;64213;46.452;16.994;2023-05-19T04:49:37;14.25;;;6.53;;
75628;SDS011;64213;46.452;16.994;2023-05-19T04:52:39;14.68;;;5.72;;
75628;SDS011;64213;46.452;16.994;2023-05-19T04:55:43;15.90;;;6.43;;
75628;SDS011;64213;46.452;16.994;2023-05-19T04:58:45;14.17;;;5.93;;
75628;SDS011;64213;46.452;16.994;2023-05-19T05:01:47;15.23;;;6.15;;
75628;SDS011;64213;46.452;16.994;2023-05-19T05:04:49;14.57;;;6.35;;
75628;SDS011;64213;46.452;16.994;2023-05-19T05:07:51;15.82;;;6.75;;
75628;SDS011;64213;46.452;16.994;2023-05-19T05:10:54;15.10;;;6.90;;
75628;SDS011;64213;46.452;16.994;2023-05-19T05:13:57;14.77;;;5.70;;
75628;SDS011;64213;46.452;16.994;2023-05-19T05:16:59;14.75;;;6.37;;
75628;SDS011;64213;46.452;16.994;2023-05-19T05:20:02;16.10;;;6.40;;
75628;SDS011;64213;46.452;16.994;2023-05-19T05:23:06;19.05;;;5.90;;
75628;SDS011;64213;46.452;16.994;2023-05-19T05:26:14;14.90;;;6.85;;
75628;SDS011;64213;46.452;16.994;2023-05-19T05:29:20;14.63;;;6.17;;
75628;SDS011;64213;46.452;16.994;2023-05-19T05:32:22;16.60;;;6.10;;
75628;SDS011;64213;46.452;16.994;2023-05-19T05:35:24;18.12;;;6.28;;
75628;SDS011;64213;46.452;16.994;2023-05-19T05:38:26;13.80;;;5.95;;
75628;SDS011;64213;46.452;16.994;2023-05-19T05:41:28;14.25;;;5.97;;
75628;SDS011;64213;46.452;16.994;2023-05-19T05:44:35;14.40;;;6.27;;
75628;SDS011;64213;46.452;16.994;2023-05-19T05:47:38;12.18;;;6.18;;
75628;SDS011;64213;46.452;16.994;2023-05-19T05:50:42;15.80;;;6.18;;
75628;SDS011;64213;46.452;16.994;2023-05-19T05:53:45;14.45;;;5.95;;
75628;SDS011;64213;46.452;16.994;2023-05-19T05:56:52;14.32;;;5.95;;
75628;SDS011;64213;46.452;16.994;2023-05-19T05:59:55;13.57;;;5.13;;
75628;SDS011;64213;46.452;16.994;2023-05-19T06:02:57;17.15;;;5.72;;
75628;SDS011;64213;46.452;16.994;2023-05-19T06:06:00;16.83;;;6.25;;
75628;SDS011;64213;46.452;16.994;2023-05-19T06:09:02;13.80;;;4.78;;
75628;SDS011;64213;46.452;16.994;2023-05-19T06:12:05;13.55;;;5.87;;
75628;SDS011;64213;46.452;16.994;2023-05-19T06:15:07;18.73;;;6.00;;
75628;SDS011;64213;46.452;16.994;2023-05-19T06:18:09;14.60;;;4.82;;
75628;SDS011;64213;46.452;16.994;2023-05-19T06:21:11;16.58;;;6.20;;
75628;SDS011;64213;46.452;16.994;2023-05-19T06:24:14;9.82;;;3.85;;
75628;SDS011;64213;46.452;16.994;2023-05-19T06:27:16;13.95;;;5.53;;
75628;SDS011;64213;46.452;16.994;2023-05-19T06:30:18;13.33;;;5.10;;
75628;SDS011;64213;46.452;16.994;2023-05-19T06:33:20;16.30;;;5.45;;
75628;SDS011;64213;46.452;16.994;2023-05-19T06:36:22;15.50;;;5.68;;
75628;SDS011;64213;46.452;16.994;2023-05-19T06:39:24;11.85;;;4.80;;
75628;SDS011;64213;46.452;16.994;2023-05-19T06:42:26;12.65;;;5.62;;
75628;SDS011;64213;46.452;16.994;2023-05-19T06:45:28;14.97;;;6.20;;
75628;SDS011;64213;46.452;16.994;2023-05-19T06:48:30;15.60;;;7.32;;
75628;SDS011;64213;46.452;16.994;2023-05-19T06:51:32;14.70;;;5.70;;
75628;SDS011;64213;46.452;16.994;2023-05-19T06:54:35;15.48;;;5.72;;
75628;SDS011;64213;46.452;16.994;2023-05-19T06:57:37;11.95;;;3.97;;
75628;SDS011;64213;46.452;16.994;2023-05-19T07:00:39;16.80;;;6.03;;
75628;SDS011;64213;46.452;16.994;2023-05-19T07:03:41;9.35;;;3.10;;
75628;SDS011;64213;46.452;16.994;2023-05-19T07:06:44;10.82;;;4.20;;
75628;SDS011;64213;46.452;16.994;2023-05-19T07:09:46;16.02;;;5.60;;
75628;SDS011;64213;46.452;16.994;2023-05-19T07:12:48;14.60;;;5.47;;
75628;SDS011;64213;46.452;16.994;2023-05-19T07:15:50;14.70;;;4.50;;
75628;SDS011;64213;46.452;16.994;2023-05-19T07:18:56;10.02;;;3.20;;
75628;SDS011;64213;46.452;16.994;2023-05-19T07:21:58;15.63;;;5.40;;
75628;SDS011;64213;46.452;16.994;2023-05-19T07:25:00;13.77;;;5.22;;
75628;SDS011;64213;46.452;16.994;2023-05-19T07:28:02;12.13;;;5.18;;
75628;SDS011;64213;46.452;16.994;2023-05-19T07:31:04;16.77;;;5.37;;
75628;SDS011;64213;46.452;16.994;2023-05-19T07:34:07;11.25;;;4.30;;
75628;SDS011;64213;46.452;16.994;2023-05-19T07:37:09;16.77;;;5.90;;
75628;SDS011;64213;46.452;16.994;2023-05-19T07:40:11;12.60;;;5.25;;
75628;SDS011;64213;46.452;16.994;2023-05-19T07:43:13;15.30;;;5.45;;
75628;SDS011;64213;46.452;16.994;2023-05-19T07:46:15;16.07;;;5.77;;
75628;SDS011;64213;46.452;16.994;2023-05-19T07:49:18;14.30;;;5.78;;
75628;SDS011;64213;46.452;16.994;2023-05-19T07:52:20;15.25;;;5.62;;
75628;SDS011;64213;46.452;16.994;2023-05-19T07:55:22;12.85;;;5.68;;
75628;SDS011;64213;46.452;16.994;2023-05-19T07:58:23;14.85;;;5.35;;
75628;SDS011;64213;46.452;16.994;2023-05-19T08:01:25;13.67;;;5.50;;
75628;SDS011;64213;46.452;16.994;2023-05-19T08:04:28;14.35;;;5.10;;
75628;SDS011;64213;46.452;16.994;2023-05-19T08:07:30;15.25;;;5.90;;
75628;SDS011;64213;46.452;16.994;2023-05-19T08:10:32;15.75;;;5.75;;
75628;SDS011;64213;46.452;16.994;2023-05-19T08:13:35;17.15;;;5.80;;
75628;SDS011;64213;46.452;16.994;2023-05-19T08:16:37;14.57;;;5.20;;
75628;SDS011;64213;46.452;16.994;2023-05-19T08:19:39;16.25;;;5.93;;
75628;SDS011;64213;46.452;16.994;2023-05-19T08:22:41;17.45;;;5.45;;
75628;SDS011;64213;46.452;16.994;2023-05-19T08:25:43;17.25;;;6.25;;
75628;SDS011;64213;46.452;16.994;2023-05-19T08:28:46;20.80;;;6.30;;
75628;SDS011;64213;46.452;16.994;2023-05-19T08:31:48;14.73;;;5.10;;
75628;SDS011;64213;46.452;16.994;2023-05-19T08:34:50;14.02;;;5.20;;
75628;SDS011;64213;46.452;16.994;2023-05-19T08:37:52;12.00;;;4.50;;
75628;SDS011;64213;46.452;16.994;2023-05-19T08:40:54;10.13;;;3.45;;
75628;SDS011;64213;46.452;16.994;2023-05-19T08:43:58;11.90;;;4.62;;
75628;SDS011;64213;46.452;16.994;2023-05-19T08:47:02;9.90;;;3.90;;
75628;SDS011;64213;46.452;16.994;2023-05-19T08:50:06;15.20;;;4.25;;
75628;SDS011;64213;46.452;16.994;2023-05-19T08:53:12;14.18;;;4.20;;
75628;SDS011;64213;46.452;16.994;2023-05-19T08:56:34;8.55;;;2.20;;
75628;SDS011;64213;46.452;16.994;2023-05-19T08:59:37;7.40;;;2.65;;
75628;SDS011;64213;46.452;16.994;2023-05-19T09:02:40;12.57;;;4.40;;
75628;SDS011;64213;46.452;16.994;2023-05-19T09:06:01;11.50;;;4.20;;
75628;SDS011;64213;46.452;16.994;2023-05-19T09:09:04;14.13;;;3.83;;
75628;SDS011;64213;46.452;16.994;2023-05-19T09:12:08;7.43;;;2.25;;
75628;SDS011;64213;46.452;16.994;2023-05-19T09:15:17;11.77;;;4.05;;
75628;SDS011;64213;46.452;16.994;2023-05-19T09:18:19;12.33;;;4.57;;
75628;SDS011;64213;46.452;16.994;2023-05-19T09:21:28;13.93;;;4.10;;
75628;SDS011;64213;46.452;16.994;2023-05-19T09:24:32;12.40;;;3.92;;
75628;SDS011;64213;46.452;16.994;2023-05-19T09:27:35;13.18;;;4.35;;
75628;SDS011;64213;46.452;16.994;2023-05-19T09:30:37;10.57;;;3.78;;
75628;SDS011;64213;46.452;16.994;2023-05-19T09:33:40;11.33;;;4.27;;
75628;SDS011;64213;46.452;16.994;2023-05-19T09:36:47;12.57;;;3.97;;
75628;SDS011;64213;46.452;16.994;2023-05-19T09:39:55;10.80;;;4.30;;
75628;SDS011;64213;46.452;16.994;2023-05-19T09:42:57;11.23;;;3.92;;
75628;SDS011;64213;46.452;16.994;2023-05-19T09:46:02;10.48;;;4.12;;
75628;SDS011;64213;46.452;16.994;2023-05-19T09:49:08;10.63;;;3.20;;
75628;SDS011;64213;46.452;16.994;2023-05-19T09:52:11;10.93;;;3.15;;
75628;SDS011;64213;46.452;16.994;2023-05-19T09:55:16;9.68;;;3.62;;
75628;SDS011;64213;46.452;16.994;2023-05-19T09:58:20;9.93;;;4.03;;
75628;SDS011;64213;46.452;16.994;2023-05-19T10:01:24;10.27;;;4.07;;
75628;SDS011;64213;46.452;16.994;2023-05-19T10:04:28;10.63;;;4.03;;
75628;SDS011;64213;46.452;16.994;2023-05-19T10:07:31;12.10;;;3.83;;
75628;SDS011;64213;46.452;16.994;2023-05-19T10:10:34;9.25;;;3.78;;
75628;SDS011;64213;46.452;16.994;2023-05-19T10:13:37;10.40;;;3.50;;
75628;SDS011;64213;46.452;16.994;2023-05-19T10:16:40;9.07;;;3.60;;
75628;SDS011;64213;46.452;16.994;2023-05-19T10:19:42;10.07;;;3.60;;
75628;SDS011;64213;46.452;16.994;2023-05-19T10:22:45;9.90;;;4.03;;
75628;SDS011;64213;46.452;16.994;2023-05-19T10:25:49;9.30;;;3.00;;
75628;SDS011;64213;46.452;16.994;2023-05-19T10:28:53;9.05;;;3.10;;
75628;SDS011;64213;46.452;16.994;2023-05-19T10:31:58;9.23;;;3.65;;
75628;SDS011;64213;46.452;16.994;2023-05-19T10:38:39;10.95;;;3.87;;
75628;SDS011;64213;46.452;16.994;2023-05-19T10:42:10;9.40;;;3.70;;
75628;SDS011;64213;46.452;16.994;2023-05-19T10:45:17;11.75;;;3.53;;
75628;SDS011;64213;46.452;16.994;2023-05-19T10:48:22;10.15;;;3.87;;
75628;SDS011;64213;46.452;16.994;2023-05-19T10:51:31;11.07;;;3.70;;
75628;SDS011;64213;46.452;16.994;2023-05-19T10:54:41;8.52;;;3.65;;
75628;SDS011;64213;46.452;16.994;2023-05-19T10:57:53;9.65;;;3.97;;
75628;SDS011;64213;46.452;16.994;2023-05-19T11:00:59;10.07;;;4.37;;
75628;SDS011;64213;46.452;16.994;2023-05-19T11:04:05;9.48;;;3.62;;
75628;SDS011;64213;46.452;16.994;2023-05-19T11:07:09;9.57;;;4.40;;
75628;SDS011;64213;46.452;16.994;2023-05-19T11:10:16;9.18;;;3.70;;
75628;SDS011;64213;46.452;16.994;2023-05-19T11:13:26;9.93;;;3.67;;
75628;SDS011;64213;46.452;16.994;2023-05-19T11:16:30;10.25;;;3.67;;
75628;SDS011;64213;46.452;16.994;2023-05-19T11:19:34;9.02;;;4.15;;
75628;SDS011;64213;46.452;16.994;2023-05-19T11:22:36;10.17;;;3.30;;
75628;SDS011;64213;46.452;16.994;2023-05-19T11:25:40;9.32;;;4.10;;
75628;SDS011;64213;46.452;16.994;2023-05-19T11:28:43;8.40;;;3.53;;
75628;SDS011;64213;46.452;16.994;2023-05-19T11:31:46;8.95;;;3.83;;
75628;SDS011;64213;46.452;16.994;2023-05-19T11:34:49;10.23;;;3.83;;
75628;SDS011;64213;46.452;16.994;2023-05-19T11:37:53;9.43;;;3.90;;
75628;SDS011;64213;46.452;16.994;2023-05-19T11:40:55;11.12;;;3.80;;
75628;SDS011;64213;46.452;16.994;2023-05-19T11:43:58;10.63;;;4.18;;
75628;SDS011;64213;46.452;16.994;2023-05-19T11:47:00;9.73;;;3.90;;
75628;SDS011;64213;46.452;16.994;2023-05-19T11:50:02;11.32;;;4.20;;
75628;SDS011;64213;46.452;16.994;2023-05-19T11:53:06;9.10;;;3.77;;
75628;SDS011;64213;46.452;16.994;2023-05-19T11:56:08;9.77;;;3.97;;
75628;SDS011;64213;46.452;16.994;2023-05-19T11:59:12;10.80;;;4.37;;
75628;SDS011;64213;46.452;16.994;2023-05-19T12:02:15;11.57;;;4.50;;
75628;SDS011;64213;46.452;16.994;2023-05-19T12:05:22;11.50;;;4.28;;
75628;SDS011;64213;46.452;16.994;2023-05-19T12:08:27;10.07;;;4.20;;
75628;SDS011;64213;46.452;16.994;2023-05-19T12:11:30;9.68;;;3.85;;
75628;SDS011;64213;46.452;16.994;2023-05-19T12:14:32;9.35;;;3.90;;
75628;SDS011;64213;46.452;16.994;2023-05-19T12:17:35;9.23;;;3.95;;
75628;SDS011;64213;46.452;16.994;2023-05-19T12:20:37;8.90;;;3.87;;
75628;SDS011;64213;46.452;16.994;2023-05-19T12:23:39;9.90;;;3.80;;
75628;SDS011;64213;46.452;16.994;2023-05-19T12:26:42;9.70;;;3.53;;
75628;SDS011;64213;46.452;16.994;2023-05-19T12:29:51;10.52;;;4.40;;
75628;SDS011;64213;46.452;16.994;2023-05-19T12:32:54;11.65;;;4.12;;
75628;SDS011;64213;46.452;16.994;2023-05-19T12:35:58;8.15;;;3.65;;
75628;SDS011;64213;46.452;16.994;2023-05-19T12:39:00;11.10;;;3.60;;
75628;SDS011;64213;46.452;16.994;2023-05-19T12:42:08;11.60;;;3.83;;
75628;SDS011;64213;46.452;16.994;2023-05-19T12:45:12;9.88;;;3.78;;
75628;SDS011;64213;46.452;16.994;2023-05-19T12:48:14;8.57;;;3.80;;
75628;SDS011;64213;46.452;16.994;2023-05-19T12:51:17;10.10;;;4.05;;
75628;SDS011;64213;46.452;16.994;2023-05-19T12:54:20;10.60;;;3.90;;
75628;SDS011;64213;46.452;16.994;2023-05-19T12:57:24;9.02;;;3.90;;
75628;SDS011;64213;46.452;16.994;2023-05-19T13:00:27;8.30;;;3.50;;
75628;SDS011;64213;46.452;16.994;2023-05-19T13:03:31;8.35;;;3.72;;
75628;SDS011;64213;46.452;16.994;2023-05-19T13:06:33;9.38;;;3.80;;
75628;SDS011;64213;46.452;16.994;2023-05-19T13:09:35;10.17;;;3.60;;
75628;SDS011;64213;46.452;16.994;2023-05-19T13:12:38;8.40;;;3.80;;
75628;SDS011;64213;46.452;16.994;2023-05-19T13:15:44;8.88;;;3.95;;
75628;SDS011;64213;46.452;16.994;2023-05-19T13:18:49;8.95;;;3.92;;
75628;SDS011;64213;46.452;16.994;2023-05-19T13:21:52;10.43;;;4.18;;
75628;SDS011;64213;46.452;16.994;2023-05-19T13:24:54;9.50;;;4.10;;
75628;SDS011;64213;46.452;16.994;2023-05-19T13:27:59;9.20;;;3.83;;
75628;SDS011;64213;46.452;16.994;2023-05-19T13:31:04;11.23;;;4.25;;
75628;SDS011;64213;46.452;16.994;2023-05-19T13:34:06;9.98;;;3.80;;
75628;SDS011;64213;46.452;16.994;2023-05-19T13:37:08;9.95;;;4.03;;
75628;SDS011;64213;46.452;16.994;2023-05-19T13:40:12;8.40;;;4.03;;
75628;SDS011;64213;46.452;16.994;2023-05-19T13:43:14;9.20;;;4.20;;
75628;SDS011;64213;46.452;16.994;2023-05-19T13:46:16;9.45;;;4.05;;
75628;SDS011;64213;46.452;16.994;2023-05-19T13:49:22;9.55;;;3.83;;
75628;SDS011;64213;46.452;16.994;2023-05-19T13:52:24;8.82;;;3.78;;
75628;SDS011;64213;46.452;16.994;2023-05-19T13:55:29;8.47;;;3.70;;
75628;SDS011;64213;46.452;16.994;2023-05-19T13:58:31;10.38;;;3.92;;
75628;SDS011;64213;46.452;16.994;2023-05-19T14:01:33;9.40;;;4.28;;
75628;SDS011;64213;46.452;16.994;2023-05-19T14:04:35;9.27;;;3.95;;
75628;SDS011;64213;46.452;16.994;2023-05-19T14:07:38;8.63;;;3.35;;
75628;SDS011;64213;46.452;16.994;2023-05-19T14:10:41;9.93;;;3.50;;
75628;SDS011;64213;46.452;16.994;2023-05-19T14:13:44;12.48;;;4.10;;
75628;SDS011;64213;46.452;16.994;2023-05-19T14:16:46;9.18;;;3.60;;
75628;SDS011;64213;46.452;16.994;2023-05-19T14:19:48;8.02;;;3.30;;
75628;SDS011;64213;46.452;16.994;2023-05-19T14:22:50;7.97;;;3.37;;
75628;SDS011;64213;46.452;16.994;2023-05-19T14:25:52;8.90;;;3.37;;
75628;SDS011;64213;46.452;16.994;2023-05-19T14:28:54;9.30;;;3.40;;
75628;SDS011;64213;46.452;16.994;2023-05-19T14:31:57;12.30;;;5.50;;
75628;SDS011;64213;46.452;16.994;2023-05-19T14:34:59;10.57;;;4.20;;
75628;SDS011;64213;46.452;16.994;2023-05-19T14:38:01;9.13;;;3.62;;
75628;SDS011;64213;46.452;16.994;2023-05-19T14:41:04;9.07;;;3.80;;
75628;SDS011;64213;46.452;16.994;2023-05-19T14:44:07;8.48;;;3.30;;
75628;SDS011;64213;46.452;16.994;2023-05-19T14:47:09;14.80;;;4.25;;
75628;SDS011;64213;46.452;16.994;2023-05-19T14:50:13;12.57;;;3.47;;
75628;SDS011;64213;46.452;16.994;2023-05-19T14:53:15;8.68;;;3.70;;
75628;SDS011;64213;46.452;16.994;2023-05-19T14:56:17;8.23;;;3.40;;
75628;SDS011;64213;46.452;16.994;2023-05-19T14:59:19;9.88;;;3.72;;
75628;SDS011;64213;46.452;16.994;2023-05-19T15:02:22;8.95;;;3.92;;
75628;SDS011;64213;46.452;16.994;2023-05-19T15:05:24;10.82;;;4.30;;
75628;SDS011;64213;46.452;16.994;2023-05-19T15:08:26;8.75;;;4.20;;
75628;SDS011;64213;46.452;16.994;2023-05-19T15:11:28;9.60;;;3.90;;
75628;SDS011;64213;46.452;16.994;2023-05-19T15:14:30;9.18;;;3.65;;
75628;SDS011;64213;46.452;16.994;2023-05-19T15:17:32;12.32;;;4.03;;
75628;SDS011;64213;46.452;16.994;2023-05-19T15:20:34;8.27;;;3.50;;
75628;SDS011;64213;46.452;16.994;2023-05-19T15:23:37;10.32;;;3.97;;
75628;SDS011;64213;46.452;16.994;2023-05-19T15:26:39;9.20;;;3.80;;
75628;SDS011;64213;46.452;16.994;2023-05-19T15:29:41;7.90;;;3.60;;
75628;SDS011;64213;46.452;16.994;2023-05-19T15:32:43;10.57;;;3.70;;
75628;SDS011;64213;46.452;16.994;2023-05-19T15:35:45;8.55;;;3.65;;
75628;SDS011;64213;46.452;16.994;2023-05-19T15:38:48;10.75;;;4.20;;
75628;SDS011;64213;46.452;16.994;2023-05-19T15:41:50;10.27;;;3.83;;
75628;SDS011;64213;46.452;16.994;2023-05-19T15:44:52;8.68;;;3.97;;
75628;SDS011;64213;46.452;16.994;2023-05-19T15:47:54;9.55;;;4.43;;
75628;SDS011;64213;46.452;16.994;2023-05-19T15:50:57;8.85;;;3.97;;
75628;SDS011;64213;46.452;16.994;2023-05-19T15:53:59;8.98;;;4.00;;
75628;SDS011;64213;46.452;16.994;2023-05-19T15:57:01;8.93;;;3.80;;
75628;SDS011;64213;46.452;16.994;2023-05-19T16:00:03;8.60;;;3.62;;
75628;SDS011;64213;46.452;16.994;2023-05-19T16:03:06;11.43;;;3.90;;
75628;SDS011;64213;46.452;16.994;2023-05-19T16:06:08;9.13;;;3.90;;
75628;SDS011;64213;46.452;16.994;2023-05-19T16:09:10;8.82;;;3.72;;
75628;SDS011;64213;46.452;16.994;2023-05-19T16:12:12;8.07;;;3.20;;
75628;SDS011;64213;46.452;16.994;2023-05-19T16:15:14;8.80;;;3.83;;
75628;SDS011;64213;46.452;16.994;2023-05-19T16:18:17;8.45;;;3.75;;
75628;SDS011;64213;46.452;16.994;2023-05-19T16:21:19;8.13;;;3.70;;
75628;SDS011;64213;46.452;16.994;2023-05-19T16:24:21;12.35;;;4.20;;
75628;SDS011;64213;46.452;16.994;2023-05-19T16:27:23;9.83;;;3.90;;
75628;SDS011;64213;46.452;16.994;2023-05-19T16:30:25;9.40;;;4.12;;
75628;SDS011;64213;46.452;16.994;2023-05-19T16:33:28;10.55;;;5.10;;
75628;SDS011;64213;46.452;16.994;2023-05-19T16:36:30;10.23;;;4.10;;
75628;SDS011;64213;46.452;16.994;2023-05-19T16:39:34;10.13;;;4.03;;
75628;SDS011;64213;46.452;16.994;2023-05-19T16:42:37;8.73;;;3.40;;
75628;SDS011;64213;46.452;16.994;2023-05-19T16:45:40;10.00;;;4.03;;
75628;SDS011;64213;46.452;16.994;2023-05-19T16:48:42;8.73;;;3.70;;
75628;SDS011;64213;46.452;16.994;2023-05-19T16:51:44;7.97;;;3.42;;
75628;SDS011;64213;46.452;16.994;2023-05-19T16:54:49;9.93;;;4.30;;
75628;SDS011;64213;46.452;16.994;2023-05-19T16:57:51;9.47;;;3.70;;
75628;SDS011;64213;46.452;16.994;2023-05-19T17:00:53;9.85;;;4.10;;
75628;SDS011;64213;46.452;16.994;2023-05-19T17:03:55;10.40;;;3.90;;
75628;SDS011;64213;46.452;16.994;2023-05-19T17:06:57;11.40;;;4.07;;
75628;SDS011;64213;46.452;16.994;2023-05-19T17:09:59;9.85;;;4.35;;
75628;SDS011;64213;46.452;16.994;2023-05-19T17:13:01;11.17;;;4.10;;
75628;SDS011;64213;46.452;16.994;2023-05-19T17:16:03;9.13;;;3.97;;
75628;SDS011;64213;46.452;16.994;2023-05-19T17:19:06;10.10;;;4.12;;
75628;SDS011;64213;46.452;16.994;2023-05-19T17:22:08;10.77;;;4.22;;
75628;SDS011;64213;46.452;16.994;2023-05-19T17:25:10;9.27;;;4.28;;
75628;SDS011;64213;46.452;16.994;2023-05-19T17:28:12;10.43;;;4.50;;
75628;SDS011;64213;46.452;16.994;2023-05-19T17:31:14;10.38;;;4.03;;
75628;SDS011;64213;46.452;16.994;2023-05-19T17:34:16;10.43;;;4.35;;
75628;SDS011;64213;46.452;16.994;2023-05-19T17:37:18;9.65;;;4.00;;
75628;SDS011;64213;46.452;16.994;2023-05-19T17:40:23;10.07;;;3.72;;
75628;SDS011;64213;46.452;16.994;2023-05-19T17:43:26;9.20;;;4.10;;
75628;SDS011;64213;46.452;16.994;2023-05-19T17:46:28;10.10;;;3.85;;
75628;SDS011;64213;46.452;16.994;2023-05-19T17:49:35;8.50;;;3.95;;
75628;SDS011;64213;46.452;16.994;2023-05-19T17:52:37;9.82;;;3.80;;
75628;SDS011;64213;46.452;16.994;2023-05-19T17:59:02;9.73;;;4.40;;
75628;SDS011;64213;46.452;16.994;2023-05-19T18:02:05;10.77;;;4.25;;
75628;SDS011;64213;46.452;16.994;2023-05-19T18:05:08;11.77;;;4.30;;
75628;SDS011;64213;46.452;16.994;2023-05-19T18:08:11;9.55;;;4.12;;
75628;SDS011;64213;46.452;16.994;2023-05-19T18:11:14;10.23;;;4.60;;
75628;SDS011;64213;46.452;16.994;2023-05-19T18:14:17;10.57;;;5.20;;
75628;SDS011;64213;46.452;16.994;2023-05-19T18:17:19;10.57;;;4.78;;
75628;SDS011;64213;46.452;16.994;2023-05-19T18:20:21;16.35;;;7.97;;
75628;SDS011;64213;46.452;16.994;2023-05-19T18:23:23;12.32;;;6.28;;